sensor_id;sensor_type;location;lat;lon;timestamp;temperature;humidity
52103;DHT22;38101;53.126;6.878;2022-10-04T00:01:45;13.10;99.90
52103;DHT22;38101;53.126;6.878;2022-10-04T00:09:46;13.10;99.90
52103;DHT22;38101;53.126;6.878;2022-10-04T00:14:59;13.10;99.90
52103;DHT22;38101;53.126;6.878;2022-10-04T00:17:28;13.10;99.90
52103;DHT22;38101;53.126;6.878;2022-10-04T00:19:56;13.10;99.90
52103;DHT22;38101;53.126;6.878;2022-10-04T00:23:20;13.10;99.90
52103;DHT22;38101;53.126;6.878;2022-10-04T00:25:35;13.10;99.90
52103;DHT22;38101;53.126;6.878;2022-10-04T00:30:44;13.00;99.90
52103;DHT22;38101;53.126;6.878;2022-10-04T00:33:10;13.00;99.90
52103;DHT22;38101;53.126;6.878;2022-10-04T00:38:13;13.00;99.90
52103;DHT22;38101;53.126;6.878;2022-10-04T00:40:51;13.00;99.90
52103;DHT22;38101;53.126;6.878;2022-10-04T00:43:36;13.00;99.90
52103;DHT22;38101;53.126;6.878;2022-10-04T00:46:20;12.90;99.90
52103;DHT22;38101;53.126;6.878;2022-10-04T00:48:48;12.90;99.90
52103;DHT22;38101;53.126;6.878;2022-10-04T00:51:31;12.90;99.90
52103;DHT22;38101;53.126;6.878;2022-10-04T00:56:55;12.90;99.90
52103;DHT22;38101;53.126;6.878;2022-10-04T00:59:40;12.90;99.90
52103;DHT22;38101;53.126;6.878;2022-10-04T01:05:22;12.90;99.90
52103;DHT22;38101;53.126;6.878;2022-10-04T01:07:55;12.90;99.90
52103;DHT22;38101;53.126;6.878;2022-10-04T01:10:26;12.90;99.90
52103;DHT22;38101;53.126;6.878;2022-10-04T01:15:40;12.90;99.90
52103;DHT22;38101;53.126;6.878;2022-10-04T01:20:58;12.90;99.90
52103;DHT22;38101;53.126;6.878;2022-10-04T01:28:52;12.90;99.90
52103;DHT22;38101;53.126;6.878;2022-10-04T01:31:18;12.90;99.90
52103;DHT22;38101;53.126;6.878;2022-10-04T01:33:43;12.90;99.90
52103;DHT22;38101;53.126;6.878;2022-10-04T01:36:09;12.90;99.90
52103;DHT22;38101;53.126;6.878;2022-10-04T01:38:35;12.90;99.90
52103;DHT22;38101;53.126;6.878;2022-10-04T01:41:01;12.90;99.90
52103;DHT22;38101;53.126;6.878;2022-10-04T01:43:33;12.80;99.90
52103;DHT22;38101;53.126;6.878;2022-10-04T01:46:09;12.90;99.90
52103;DHT22;38101;53.126;6.878;2022-10-04T01:48:38;12.90;99.90
52103;DHT22;38101;53.126;6.878;2022-10-04T01:51:19;12.90;99.90
52103;DHT22;38101;53.126;6.878;2022-10-04T01:53:47;12.90;99.90
52103;DHT22;38101;53.126;6.878;2022-10-04T01:56:17;12.90;99.90
52103;DHT22;38101;53.126;6.878;2022-10-04T01:58:58;12.90;99.90
52103;DHT22;38101;53.126;6.878;2022-10-04T02:01:33;12.90;99.90
52103;DHT22;38101;53.126;6.878;2022-10-04T02:04:18;12.90;99.90
52103;DHT22;38101;53.126;6.878;2022-10-04T02:06:48;12.90;99.90
52103;DHT22;38101;53.126;6.878;2022-10-04T02:09:24;12.90;99.90
52103;DHT22;38101;53.126;6.878;2022-10-04T02:11:52;12.90;99.90
52103;DHT22;38101;53.126;6.878;2022-10-04T02:14:24;12.90;99.90
52103;DHT22;38101;53.126;6.878;2022-10-04T02:16:52;12.90;99.90
52103;DHT22;38101;53.126;6.878;2022-10-04T02:19:24;12.90;99.90
52103;DHT22;38101;53.126;6.878;2022-10-04T02:21:52;12.90;99.90
52103;DHT22;38101;53.126;6.878;2022-10-04T02:24:19;12.90;99.90
52103;DHT22;38101;53.126;6.878;2022-10-04T02:26:52;12.90;99.90
52103;DHT22;38101;53.126;6.878;2022-10-04T02:29:19;12.90;99.90
52103;DHT22;38101;53.126;6.878;2022-10-04T02:31:49;12.90;99.90
52103;DHT22;38101;53.126;6.878;2022-10-04T02:34:34;12.90;99.90
52103;DHT22;38101;53.126;6.878;2022-10-04T02:37:02;12.90;99.90
52103;DHT22;38101;53.126;6.878;2022-10-04T02:39:36;12.90;99.90
52103;DHT22;38101;53.126;6.878;2022-10-04T02:42:08;12.80;99.90
52103;DHT22;38101;53.126;6.878;2022-10-04T02:44:45;12.80;99.90
52103;DHT22;38101;53.126;6.878;2022-10-04T02:47:21;12.80;99.90
52103;DHT22;38101;53.126;6.878;2022-10-04T02:50:05;12.80;99.90
52103;DHT22;38101;53.126;6.878;2022-10-04T02:52:43;12.90;99.90
52103;DHT22;38101;53.126;6.878;2022-10-04T02:55:22;12.80;99.90
52103;DHT22;38101;53.126;6.878;2022-10-04T02:57:49;12.80;99.90
52103;DHT22;38101;53.126;6.878;2022-10-04T03:00:25;12.90;99.90
52103;DHT22;38101;53.126;6.878;2022-10-04T03:05:54;12.80;99.90
52103;DHT22;38101;53.126;6.878;2022-10-04T03:08:20;12.80;99.90
52103;DHT22;38101;53.126;6.878;2022-10-04T03:10:46;12.80;99.90
52103;DHT22;38101;53.126;6.878;2022-10-04T03:13:13;12.80;99.90
52103;DHT22;38101;53.126;6.878;2022-10-04T03:15:40;12.80;99.90
52103;DHT22;38101;53.126;6.878;2022-10-04T03:18:08;12.80;99.90
52103;DHT22;38101;53.126;6.878;2022-10-04T03:20:38;12.80;99.90
52103;DHT22;38101;53.126;6.878;2022-10-04T03:23:05;12.70;99.90
52103;DHT22;38101;53.126;6.878;2022-10-04T03:25:55;12.70;99.90
52103;DHT22;38101;53.126;6.878;2022-10-04T03:28:23;12.70;99.90
52103;DHT22;38101;53.126;6.878;2022-10-04T03:30:49;12.70;99.90
52103;DHT22;38101;53.126;6.878;2022-10-04T03:33:21;12.70;99.90
52103;DHT22;38101;53.126;6.878;2022-10-04T03:35:53;12.70;99.90
52103;DHT22;38101;53.126;6.878;2022-10-04T03:38:21;12.70;99.90
52103;DHT22;38101;53.126;6.878;2022-10-04T03:40:59;12.70;99.90
52103;DHT22;38101;53.126;6.878;2022-10-04T03:43:30;12.70;99.90
52103;DHT22;38101;53.126;6.878;2022-10-04T03:45:57;12.70;99.90
52103;DHT22;38101;53.126;6.878;2022-10-04T03:48:34;12.60;99.90
52103;DHT22;38101;53.126;6.878;2022-10-04T03:51:02;12.70;99.90
52103;DHT22;38101;53.126;6.878;2022-10-04T03:53:41;12.60;99.90
52103;DHT22;38101;53.126;6.878;2022-10-04T03:56:16;12.60;99.90
52103;DHT22;38101;53.126;6.878;2022-10-04T03:58:43;12.60;99.90
52103;DHT22;38101;53.126;6.878;2022-10-04T04:03:54;12.60;99.90
52103;DHT22;38101;53.126;6.878;2022-10-04T04:06:22;12.60;99.90
52103;DHT22;38101;53.126;6.878;2022-10-04T04:08:52;12.60;99.90
52103;DHT22;38101;53.126;6.878;2022-10-04T04:11:26;12.50;99.90
52103;DHT22;38101;53.126;6.878;2022-10-04T04:16:23;12.50;99.90
52103;DHT22;38101;53.126;6.878;2022-10-04T04:18:52;12.50;99.90
52103;DHT22;38101;53.126;6.878;2022-10-04T04:21:19;12.50;99.90
52103;DHT22;38101;53.126;6.878;2022-10-04T04:23:58;12.50;99.90
52103;DHT22;38101;53.126;6.878;2022-10-04T04:36:41;12.50;99.90
52103;DHT22;38101;53.126;6.878;2022-10-04T04:41:52;12.50;99.90
52103;DHT22;38101;53.126;6.878;2022-10-04T04:44:18;12.50;99.90
52103;DHT22;38101;53.126;6.878;2022-10-04T04:46:46;12.50;99.90
52103;DHT22;38101;53.126;6.878;2022-10-04T04:49:14;12.50;99.90
52103;DHT22;38101;53.126;6.878;2022-10-04T04:51:47;12.40;99.90
52103;DHT22;38101;53.126;6.878;2022-10-04T04:54:15;12.40;99.90
52103;DHT22;38101;53.126;6.878;2022-10-04T04:56:42;12.40;99.90
52103;DHT22;38101;53.126;6.878;2022-10-04T04:59:10;12.40;99.90
52103;DHT22;38101;53.126;6.878;2022-10-04T05:01:47;12.40;99.90
52103;DHT22;38101;53.126;6.878;2022-10-04T05:06:41;12.40;99.90
52103;DHT22;38101;53.126;6.878;2022-10-04T05:09:23;12.40;99.90
52103;DHT22;38101;53.126;6.878;2022-10-04T05:11:52;12.40;99.90
52103;DHT22;38101;53.126;6.878;2022-10-04T05:14:19;12.30;99.90
52103;DHT22;38101;53.126;6.878;2022-10-04T05:16:48;12.30;99.90
52103;DHT22;38101;53.126;6.878;2022-10-04T05:19:27;12.30;99.90
52103;DHT22;38101;53.126;6.878;2022-10-04T05:22:01;12.30;99.90
52103;DHT22;38101;53.126;6.878;2022-10-04T05:24:32;12.30;99.90
52103;DHT22;38101;53.126;6.878;2022-10-04T05:27:02;12.20;99.90
52103;DHT22;38101;53.126;6.878;2022-10-04T05:29:33;12.30;99.90
52103;DHT22;38101;53.126;6.878;2022-10-04T05:32:42;12.20;99.90
52103;DHT22;38101;53.126;6.878;2022-10-04T05:34:58;12.20;99.90
52103;DHT22;38101;53.126;6.878;2022-10-04T05:37:38;12.20;99.90
52103;DHT22;38101;53.126;6.878;2022-10-04T05:42:41;12.10;99.90
52103;DHT22;38101;53.126;6.878;2022-10-04T05:45:21;12.10;99.90
52103;DHT22;38101;53.126;6.878;2022-10-04T05:47:51;12.10;99.90
52103;DHT22;38101;53.126;6.878;2022-10-04T05:50:36;12.10;99.90
52103;DHT22;38101;53.126;6.878;2022-10-04T05:53:22;12.10;99.90
52103;DHT22;38101;53.126;6.878;2022-10-04T06:06:58;12.10;99.90
52103;DHT22;38101;53.126;6.878;2022-10-04T06:10:16;12.00;99.90
52103;DHT22;38101;53.126;6.878;2022-10-04T06:15:46;12.00;99.90
52103;DHT22;38101;53.126;6.878;2022-10-04T06:18:32;12.00;99.90
52103;DHT22;38101;53.126;6.878;2022-10-04T06:23:33;11.90;99.90
52103;DHT22;38101;53.126;6.878;2022-10-04T06:26:06;11.90;99.90
52103;DHT22;38101;53.126;6.878;2022-10-04T06:28:49;11.90;99.90
52103;DHT22;38101;53.126;6.878;2022-10-04T06:34:11;11.90;99.90
52103;DHT22;38101;53.126;6.878;2022-10-04T06:37:05;11.90;99.90
52103;DHT22;38101;53.126;6.878;2022-10-04T06:42:12;11.90;99.90
52103;DHT22;38101;53.126;6.878;2022-10-04T06:44:57;11.90;99.90
52103;DHT22;38101;53.126;6.878;2022-10-04T06:48:40;12.00;99.90
52103;DHT22;38101;53.126;6.878;2022-10-04T06:50:50;12.00;99.90
52103;DHT22;38101;53.126;6.878;2022-10-04T06:53:24;12.00;99.90
52103;DHT22;38101;53.126;6.878;2022-10-04T06:58:53;12.00;99.90
52103;DHT22;38101;53.126;6.878;2022-10-04T07:01:30;12.10;99.90
52103;DHT22;38101;53.126;6.878;2022-10-04T07:09:40;12.10;99.90
52103;DHT22;38101;53.126;6.878;2022-10-04T07:12:11;12.10;99.90
52103;DHT22;38101;53.126;6.878;2022-10-04T07:14:47;12.20;99.90
52103;DHT22;38101;53.126;6.878;2022-10-04T07:17:38;12.20;99.90
52103;DHT22;38101;53.126;6.878;2022-10-04T07:20:05;12.30;99.90
52103;DHT22;38101;53.126;6.878;2022-10-04T07:22:45;12.30;99.90
52103;DHT22;38101;53.126;6.878;2022-10-04T07:25:28;12.30;99.90
52103;DHT22;38101;53.126;6.878;2022-10-04T07:31:29;12.40;99.90
52103;DHT22;38101;53.126;6.878;2022-10-04T07:34:13;12.50;99.90
52103;DHT22;38101;53.126;6.878;2022-10-04T07:36:56;12.50;99.90
52103;DHT22;38101;53.126;6.878;2022-10-04T07:39:30;12.60;99.90
52103;DHT22;38101;53.126;6.878;2022-10-04T07:44:53;12.60;99.90
52103;DHT22;38101;53.126;6.878;2022-10-04T07:47:24;12.70;99.90
52103;DHT22;38101;53.126;6.878;2022-10-04T07:49:54;12.70;99.90
52103;DHT22;38101;53.126;6.878;2022-10-04T07:52:46;12.70;99.90
52103;DHT22;38101;53.126;6.878;2022-10-04T07:58:27;12.80;99.90
52103;DHT22;38101;53.126;6.878;2022-10-04T08:06:56;13.00;99.90
52103;DHT22;38101;53.126;6.878;2022-10-04T08:23:07;13.30;99.90
52103;DHT22;38101;53.126;6.878;2022-10-04T08:26:11;13.40;99.90
52103;DHT22;38101;53.126;6.878;2022-10-04T08:33:06;13.50;99.90
52103;DHT22;38101;53.126;6.878;2022-10-04T08:55:38;13.50;99.90
52103;DHT22;38101;53.126;6.878;2022-10-04T08:58:18;13.50;99.90
52103;DHT22;38101;53.126;6.878;2022-10-04T09:01:26;13.60;99.90
52103;DHT22;38101;53.126;6.878;2022-10-04T09:04:26;13.60;99.90
52103;DHT22;38101;53.126;6.878;2022-10-04T09:10:10;13.70;99.90
52103;DHT22;38101;53.126;6.878;2022-10-04T09:13:00;13.80;99.90
52103;DHT22;38101;53.126;6.878;2022-10-04T09:15:50;13.80;99.90
52103;DHT22;38101;53.126;6.878;2022-10-04T09:21:09;13.90;99.90
52103;DHT22;38101;53.126;6.878;2022-10-04T09:26:20;14.00;99.90
52103;DHT22;38101;53.126;6.878;2022-10-04T09:29:04;14.00;99.90
52103;DHT22;38101;53.126;6.878;2022-10-04T09:35:31;14.10;99.90
52103;DHT22;38101;53.126;6.878;2022-10-04T09:48:34;14.30;99.90
52103;DHT22;38101;53.126;6.878;2022-10-04T09:51:13;14.30;99.90
52103;DHT22;38101;53.126;6.878;2022-10-04T10:05:29;14.50;99.90
52103;DHT22;38101;53.126;6.878;2022-10-04T10:08:08;14.60;99.90
52103;DHT22;38101;53.126;6.878;2022-10-04T10:11:01;14.70;99.90
52103;DHT22;38101;53.126;6.878;2022-10-04T10:16:51;14.80;99.90
52103;DHT22;38101;53.126;6.878;2022-10-04T10:22:29;14.80;99.90
52103;DHT22;38101;53.126;6.878;2022-10-04T10:42:17;15.10;99.90
52103;DHT22;38101;53.126;6.878;2022-10-04T10:45:18;15.20;99.90
52103;DHT22;38101;53.126;6.878;2022-10-04T10:47:53;15.30;99.90
52103;DHT22;38101;53.126;6.878;2022-10-04T10:50:42;15.30;99.90
52103;DHT22;38101;53.126;6.878;2022-10-04T11:02:48;15.60;99.90
52103;DHT22;38101;53.126;6.878;2022-10-04T11:10:50;15.90;99.90
52103;DHT22;38101;53.126;6.878;2022-10-04T11:13:36;16.00;99.90
52103;DHT22;38101;53.126;6.878;2022-10-04T11:22:05;16.20;99.90
52103;DHT22;38101;53.126;6.878;2022-10-04T11:41:03;16.70;99.90
52103;DHT22;38101;53.126;6.878;2022-10-04T11:54:29;17.10;99.90
52103;DHT22;38101;53.126;6.878;2022-10-04T11:59:42;17.30;99.90
52103;DHT22;38101;53.126;6.878;2022-10-04T12:08:00;17.50;99.90
52103;DHT22;38101;53.126;6.878;2022-10-04T12:10:40;17.60;99.90
52103;DHT22;38101;53.126;6.878;2022-10-04T12:13:31;17.70;99.90
52103;DHT22;38101;53.126;6.878;2022-10-04T12:19:24;17.80;99.90
52103;DHT22;38101;53.126;6.878;2022-10-04T12:25:29;17.80;99.90
52103;DHT22;38101;53.126;6.878;2022-10-04T12:39:23;18.20;99.90
52103;DHT22;38101;53.126;6.878;2022-10-04T12:42:32;18.20;99.90
52103;DHT22;38101;53.126;6.878;2022-10-04T12:50:40;18.20;99.90
52103;DHT22;38101;53.126;6.878;2022-10-04T13:04:21;18.30;99.90
52103;DHT22;38101;53.126;6.878;2022-10-04T13:12:14;18.50;99.90
52103;DHT22;38101;53.126;6.878;2022-10-04T13:15:31;18.50;99.90
52103;DHT22;38101;53.126;6.878;2022-10-04T13:25:54;18.60;99.90
52103;DHT22;38101;53.126;6.878;2022-10-04T13:28:43;18.60;99.90
52103;DHT22;38101;53.126;6.878;2022-10-04T13:31:31;18.60;99.90
52103;DHT22;38101;53.126;6.878;2022-10-04T13:34:06;18.60;99.90
52103;DHT22;38101;53.126;6.878;2022-10-04T13:36:47;18.70;99.90
52103;DHT22;38101;53.126;6.878;2022-10-04T13:39:41;18.70;99.90
52103;DHT22;38101;53.126;6.878;2022-10-04T13:50:41;18.80;99.90
52103;DHT22;38101;53.126;6.878;2022-10-04T13:53:39;18.90;99.90
52103;DHT22;38101;53.126;6.878;2022-10-04T13:59:49;18.90;99.90
52103;DHT22;38101;53.126;6.878;2022-10-04T14:08:04;18.80;99.90
52103;DHT22;38101;53.126;6.878;2022-10-04T14:20:22;18.70;99.90
52103;DHT22;38101;53.126;6.878;2022-10-04T14:25:43;18.50;99.90
52103;DHT22;38101;53.126;6.878;2022-10-04T14:34:17;18.40;99.90
52103;DHT22;38101;53.126;6.878;2022-10-04T14:43:11;18.50;99.90
52103;DHT22;38101;53.126;6.878;2022-10-04T14:46:29;18.50;99.90
52103;DHT22;38101;53.126;6.878;2022-10-04T15:00:06;18.60;99.90
52103;DHT22;38101;53.126;6.878;2022-10-04T15:02:50;18.50;99.90
52103;DHT22;38101;53.126;6.878;2022-10-04T15:05:40;18.40;99.90
52103;DHT22;38101;53.126;6.878;2022-10-04T15:13:34;18.30;99.90
52103;DHT22;38101;53.126;6.878;2022-10-04T15:16:06;18.30;99.90
52103;DHT22;38101;53.126;6.878;2022-10-04T15:35:22;17.80;99.90
52103;DHT22;38101;53.126;6.878;2022-10-04T15:43:26;17.60;99.90
52103;DHT22;38101;53.126;6.878;2022-10-04T15:48:35;17.50;99.90
52103;DHT22;38101;53.126;6.878;2022-10-04T15:51:18;17.50;99.90
52103;DHT22;38101;53.126;6.878;2022-10-04T16:00:26;17.40;99.90
52103;DHT22;38101;53.126;6.878;2022-10-04T16:03:04;17.40;99.90
52103;DHT22;38101;53.126;6.878;2022-10-04T16:05:45;17.30;99.90
52103;DHT22;38101;53.126;6.878;2022-10-04T16:08:28;17.30;99.90
52103;DHT22;38101;53.126;6.878;2022-10-04T16:14:58;17.30;99.90
52103;DHT22;38101;53.126;6.878;2022-10-04T16:22:34;17.20;99.90
52103;DHT22;38101;53.126;6.878;2022-10-04T16:33:33;17.00;99.90
52103;DHT22;38101;53.126;6.878;2022-10-04T16:36:06;16.90;99.90
52103;DHT22;38101;53.126;6.878;2022-10-04T16:38:50;16.90;99.90
52103;DHT22;38101;53.126;6.878;2022-10-04T16:41:51;16.80;99.90
52103;DHT22;38101;53.126;6.878;2022-10-04T16:49:54;16.60;99.90
52103;DHT22;38101;53.126;6.878;2022-10-04T16:53:37;16.60;99.90
52103;DHT22;38101;53.126;6.878;2022-10-04T16:55:48;16.50;99.90
52103;DHT22;38101;53.126;6.878;2022-10-04T17:12:23;16.20;99.90
52103;DHT22;38101;53.126;6.878;2022-10-04T17:15:18;16.30;99.90
52103;DHT22;38101;53.126;6.878;2022-10-04T17:36:38;16.00;99.90
52103;DHT22;38101;53.126;6.878;2022-10-04T17:42:14;16.00;99.90
52103;DHT22;38101;53.126;6.878;2022-10-04T17:45:39;16.00;99.90
52103;DHT22;38101;53.126;6.878;2022-10-04T17:48:14;16.00;99.90
52103;DHT22;38101;53.126;6.878;2022-10-04T17:51:00;15.90;99.90
52103;DHT22;38101;53.126;6.878;2022-10-04T17:53:54;15.90;99.90
52103;DHT22;38101;53.126;6.878;2022-10-04T17:56:49;15.90;99.90
52103;DHT22;38101;53.126;6.878;2022-10-04T17:59:20;15.90;99.90
52103;DHT22;38101;53.126;6.878;2022-10-04T18:01:51;15.90;99.90
52103;DHT22;38101;53.126;6.878;2022-10-04T18:04:24;15.90;99.90
52103;DHT22;38101;53.126;6.878;2022-10-04T18:06:53;15.90;99.90
52103;DHT22;38101;53.126;6.878;2022-10-04T18:09:44;15.90;99.90
52103;DHT22;38101;53.126;6.878;2022-10-04T18:18:16;15.80;99.90
52103;DHT22;38101;53.126;6.878;2022-10-04T18:23:24;15.80;99.90
52103;DHT22;38101;53.126;6.878;2022-10-04T18:28:25;15.80;99.90
52103;DHT22;38101;53.126;6.878;2022-10-04T18:30:55;15.80;99.90
52103;DHT22;38101;53.126;6.878;2022-10-04T18:33:44;15.80;99.90
52103;DHT22;38101;53.126;6.878;2022-10-04T18:38:42;15.80;99.90
52103;DHT22;38101;53.126;6.878;2022-10-04T18:43:52;15.80;99.90
52103;DHT22;38101;53.126;6.878;2022-10-04T18:46:38;15.80;99.90
52103;DHT22;38101;53.126;6.878;2022-10-04T18:49:20;15.80;99.90
52103;DHT22;38101;53.126;6.878;2022-10-04T19:00:05;15.80;99.90
52103;DHT22;38101;53.126;6.878;2022-10-04T19:06:22;15.80;99.90
52103;DHT22;38101;53.126;6.878;2022-10-04T19:09:37;15.70;99.90
52103;DHT22;38101;53.126;6.878;2022-10-04T19:12:14;15.80;99.90
52103;DHT22;38101;53.126;6.878;2022-10-04T19:20:08;15.70;99.90
52103;DHT22;38101;53.126;6.878;2022-10-04T19:25:36;15.80;99.90
52103;DHT22;38101;53.126;6.878;2022-10-04T19:28:27;15.70;99.90
52103;DHT22;38101;53.126;6.878;2022-10-04T19:34:17;15.70;99.90
52103;DHT22;38101;53.126;6.878;2022-10-04T19:36:45;15.80;99.90
52103;DHT22;38101;53.126;6.878;2022-10-04T19:47:04;15.70;99.90
52103;DHT22;38101;53.126;6.878;2022-10-04T19:58:19;15.80;99.90
52103;DHT22;38101;53.126;6.878;2022-10-04T20:00:48;15.70;99.90
52103;DHT22;38101;53.126;6.878;2022-10-04T20:03:14;15.80;99.90
52103;DHT22;38101;53.126;6.878;2022-10-04T20:05:51;15.80;99.90
52103;DHT22;38101;53.126;6.878;2022-10-04T20:08:55;15.80;99.90
52103;DHT22;38101;53.126;6.878;2022-10-04T20:11:26;15.80;99.90
52103;DHT22;38101;53.126;6.878;2022-10-04T20:27:05;15.80;99.90
52103;DHT22;38101;53.126;6.878;2022-10-04T20:32:09;15.80;99.90
52103;DHT22;38101;53.126;6.878;2022-10-04T20:37:06;15.80;99.90
52103;DHT22;38101;53.126;6.878;2022-10-04T20:42:10;15.80;99.90
52103;DHT22;38101;53.126;6.878;2022-10-04T20:45:04;15.80;99.90
52103;DHT22;38101;53.126;6.878;2022-10-04T20:47:55;15.80;99.90
52103;DHT22;38101;53.126;6.878;2022-10-04T20:50:34;15.80;99.90
52103;DHT22;38101;53.126;6.878;2022-10-04T20:53:16;15.80;99.90
52103;DHT22;38101;53.126;6.878;2022-10-04T20:55:43;15.80;99.90
52103;DHT22;38101;53.126;6.878;2022-10-04T20:58:23;15.80;99.90
52103;DHT22;38101;53.126;6.878;2022-10-04T21:00:55;15.80;99.90
52103;DHT22;38101;53.126;6.878;2022-10-04T21:03:21;15.80;99.90
52103;DHT22;38101;53.126;6.878;2022-10-04T21:06:19;15.80;99.90
52103;DHT22;38101;53.126;6.878;2022-10-04T21:08:46;15.80;99.90
52103;DHT22;38101;53.126;6.878;2022-10-04T21:11:17;15.80;99.90
52103;DHT22;38101;53.126;6.878;2022-10-04T21:19:29;15.80;99.90
52103;DHT22;38101;53.126;6.878;2022-10-04T21:21:56;15.80;99.90
52103;DHT22;38101;53.126;6.878;2022-10-04T21:24:37;15.80;99.90
52103;DHT22;38101;53.126;6.878;2022-10-04T21:27:08;15.80;99.90
52103;DHT22;38101;53.126;6.878;2022-10-04T21:29:35;15.70;99.90
52103;DHT22;38101;53.126;6.878;2022-10-04T21:32:01;15.70;99.90
52103;DHT22;38101;53.126;6.878;2022-10-04T21:34:27;15.70;99.90
52103;DHT22;38101;53.126;6.878;2022-10-04T21:36:52;15.70;99.90
52103;DHT22;38101;53.126;6.878;2022-10-04T21:39:18;15.70;99.90
52103;DHT22;38101;53.126;6.878;2022-10-04T21:41:44;15.70;99.90
52103;DHT22;38101;53.126;6.878;2022-10-04T21:44:10;15.70;99.90
52103;DHT22;38101;53.126;6.878;2022-10-04T21:46:36;15.70;99.90
52103;DHT22;38101;53.126;6.878;2022-10-04T21:49:02;15.70;99.90
52103;DHT22;38101;53.126;6.878;2022-10-04T21:51:28;15.70;99.90
52103;DHT22;38101;53.126;6.878;2022-10-04T21:53:59;15.70;99.90
52103;DHT22;38101;53.126;6.878;2022-10-04T21:56:24;15.70;99.90
52103;DHT22;38101;53.126;6.878;2022-10-04T21:58:50;15.70;99.90
52103;DHT22;38101;53.126;6.878;2022-10-04T22:01:15;15.70;99.90
52103;DHT22;38101;53.126;6.878;2022-10-04T22:03:41;15.70;99.90
52103;DHT22;38101;53.126;6.878;2022-10-04T22:06:07;15.70;99.90
52103;DHT22;38101;53.126;6.878;2022-10-04T22:08:33;15.70;99.90
52103;DHT22;38101;53.126;6.878;2022-10-04T22:10:58;15.70;99.90
52103;DHT22;38101;53.126;6.878;2022-10-04T22:13:24;15.70;99.90
52103;DHT22;38101;53.126;6.878;2022-10-04T22:15:51;15.70;99.90
52103;DHT22;38101;53.126;6.878;2022-10-04T22:18:17;15.60;99.90
52103;DHT22;38101;53.126;6.878;2022-10-04T22:20:42;15.60;99.90
52103;DHT22;38101;53.126;6.878;2022-10-04T22:23:18;15.60;99.90
52103;DHT22;38101;53.126;6.878;2022-10-04T22:25:44;15.60;99.90
52103;DHT22;38101;53.126;6.878;2022-10-04T22:28:29;15.60;99.90
52103;DHT22;38101;53.126;6.878;2022-10-04T22:30:55;15.60;99.90
52103;DHT22;38101;53.126;6.878;2022-10-04T22:35:58;15.60;99.90
52103;DHT22;38101;53.126;6.878;2022-10-04T22:38:29;15.60;99.90
52103;DHT22;38101;53.126;6.878;2022-10-04T22:40:56;15.60;99.90
52103;DHT22;38101;53.126;6.878;2022-10-04T22:43:24;15.60;99.90
52103;DHT22;38101;53.126;6.878;2022-10-04T22:45:50;15.60;99.90
52103;DHT22;38101;53.126;6.878;2022-10-04T22:48:16;15.70;99.90
52103;DHT22;38101;53.126;6.878;2022-10-04T22:50:42;15.70;99.90
52103;DHT22;38101;53.126;6.878;2022-10-04T22:53:15;15.70;99.90
52103;DHT22;38101;53.126;6.878;2022-10-04T22:55:41;15.70;99.90
52103;DHT22;38101;53.126;6.878;2022-10-04T22:58:11;15.70;99.90
52103;DHT22;38101;53.126;6.878;2022-10-04T23:00:38;15.70;99.90
52103;DHT22;38101;53.126;6.878;2022-10-04T23:03:22;15.70;99.90
52103;DHT22;38101;53.126;6.878;2022-10-04T23:05:49;15.70;99.90
52103;DHT22;38101;53.126;6.878;2022-10-04T23:08:15;15.80;99.90
52103;DHT22;38101;53.126;6.878;2022-10-04T23:10:43;15.80;99.90
52103;DHT22;38101;53.126;6.878;2022-10-04T23:13:08;15.80;99.90
52103;DHT22;38101;53.126;6.878;2022-10-04T23:15:34;15.80;99.90
52103;DHT22;38101;53.126;6.878;2022-10-04T23:18:00;15.80;99.90
52103;DHT22;38101;53.126;6.878;2022-10-04T23:20:28;15.80;99.90
52103;DHT22;38101;53.126;6.878;2022-10-04T23:22:54;15.80;99.90
52103;DHT22;38101;53.126;6.878;2022-10-04T23:25:26;15.80;99.90
52103;DHT22;38101;53.126;6.878;2022-10-04T23:27:57;15.80;99.90
52103;DHT22;38101;53.126;6.878;2022-10-04T23:30:25;15.80;99.90
52103;DHT22;38101;53.126;6.878;2022-10-04T23:32:52;15.80;99.90
52103;DHT22;38101;53.126;6.878;2022-10-04T23:35:29;15.80;99.90
52103;DHT22;38101;53.126;6.878;2022-10-04T23:37:55;15.80;99.90
52103;DHT22;38101;53.126;6.878;2022-10-04T23:40:22;15.80;99.90
52103;DHT22;38101;53.126;6.878;2022-10-04T23:42:51;15.80;99.90
52103;DHT22;38101;53.126;6.878;2022-10-04T23:45:23;15.80;99.90
52103;DHT22;38101;53.126;6.878;2022-10-04T23:47:55;15.80;99.90
52103;DHT22;38101;53.126;6.878;2022-10-04T23:50:30;15.80;99.90
52103;DHT22;38101;53.126;6.878;2022-10-04T23:53:00;15.80;99.90
52103;DHT22;38101;53.126;6.878;2022-10-04T23:55:40;15.80;99.90
52103;DHT22;38101;53.126;6.878;2022-10-04T23:58:16;15.80;99.90
